sensor_id;sensor_type;location;lat;lon;timestamp;P1;durP1;ratioP1;P2;durP2;ratioP2
5125;SDS011;63008;53.112;8.896;2023-02-27T00:01:35;10.20;;;6.00;;
5125;SDS011;63008;53.112;8.896;2023-02-27T00:03:36;5.97;;;5.47;;
5125;SDS011;63008;53.112;8.896;2023-02-27T00:05:37;13.70;;;6.07;;
5125;SDS011;63008;53.112;8.896;2023-02-27T00:07:41;7.97;;;5.93;;
5125;SDS011;63008;53.112;8.896;2023-02-27T00:09:42;8.20;;;5.90;;
5125;SDS011;63008;53.112;8.896;2023-02-27T00:11:43;9.60;;;5.93;;
5125;SDS011;63008;53.112;8.896;2023-02-27T00:13:44;8.87;;;6.27;;
5125;SDS011;63008;53.112;8.896;2023-02-27T00:15:46;12.37;;;5.70;;
5125;SDS011;63008;53.112;8.896;2023-02-27T00:17:49;13.27;;;6.83;;
5125;SDS011;63008;53.112;8.896;2023-02-27T00:19:50;7.17;;;6.03;;
5125;SDS011;63008;53.112;8.896;2023-02-27T00:21:51;7.60;;;6.70;;
5125;SDS011;63008;53.112;8.896;2023-02-27T00:23:52;8.97;;;6.10;;
5125;SDS011;63008;53.112;8.896;2023-02-27T00:25:53;11.77;;;6.50;;
5125;SDS011;63008;53.112;8.896;2023-02-27T00:27:55;8.53;;;6.30;;
5125;SDS011;63008;53.112;8.896;2023-02-27T00:29:56;9.60;;;6.23;;
5125;SDS011;63008;53.112;8.896;2023-02-27T00:31:57;7.00;;;6.30;;
5125;SDS011;63008;53.112;8.896;2023-02-27T00:33:58;11.60;;;6.90;;
5125;SDS011;63008;53.112;8.896;2023-02-27T00:36:00;9.67;;;6.50;;
5125;SDS011;63008;53.112;8.896;2023-02-27T00:38:02;10.10;;;6.67;;
5125;SDS011;63008;53.112;8.896;2023-02-27T00:40:03;8.77;;;7.10;;
5125;SDS011;63008;53.112;8.896;2023-02-27T00:42:05;9.53;;;6.53;;
5125;SDS011;63008;53.112;8.896;2023-02-27T00:44:06;14.17;;;6.80;;
5125;SDS011;63008;53.112;8.896;2023-02-27T00:46:07;10.80;;;6.77;;
5125;SDS011;63008;53.112;8.896;2023-02-27T00:48:09;11.00;;;6.50;;
5125;SDS011;63008;53.112;8.896;2023-02-27T00:50:10;8.00;;;6.40;;
5125;SDS011;63008;53.112;8.896;2023-02-27T00:52:12;11.93;;;6.73;;
5125;SDS011;63008;53.112;8.896;2023-02-27T00:54:13;8.47;;;6.17;;
5125;SDS011;63008;53.112;8.896;2023-02-27T00:56:14;11.07;;;5.67;;
5125;SDS011;63008;53.112;8.896;2023-02-27T00:58:15;7.80;;;5.73;;
5125;SDS011;63008;53.112;8.896;2023-02-27T01:00:16;8.90;;;5.90;;
5125;SDS011;63008;53.112;8.896;2023-02-27T01:02:17;10.13;;;6.50;;
5125;SDS011;63008;53.112;8.896;2023-02-27T01:04:19;11.03;;;6.97;;
5125;SDS011;63008;53.112;8.896;2023-02-27T01:06:20;10.30;;;6.63;;
5125;SDS011;63008;53.112;8.896;2023-02-27T01:08:21;8.53;;;7.00;;
5125;SDS011;63008;53.112;8.896;2023-02-27T01:10:22;10.60;;;7.00;;
5125;SDS011;63008;53.112;8.896;2023-02-27T01:12:23;9.20;;;6.57;;
5125;SDS011;63008;53.112;8.896;2023-02-27T01:14:24;10.80;;;6.50;;
5125;SDS011;63008;53.112;8.896;2023-02-27T01:16:26;7.93;;;6.73;;
5125;SDS011;63008;53.112;8.896;2023-02-27T01:18:27;7.80;;;5.97;;
5125;SDS011;63008;53.112;8.896;2023-02-27T01:20:28;9.13;;;5.97;;
5125;SDS011;63008;53.112;8.896;2023-02-27T01:22:29;12.50;;;6.47;;
5125;SDS011;63008;53.112;8.896;2023-02-27T01:24:31;10.83;;;6.60;;
5125;SDS011;63008;53.112;8.896;2023-02-27T01:26:33;12.43;;;6.67;;
5125;SDS011;63008;53.112;8.896;2023-02-27T01:28:34;12.13;;;7.33;;
5125;SDS011;63008;53.112;8.896;2023-02-27T01:30:35;13.60;;;7.00;;
5125;SDS011;63008;53.112;8.896;2023-02-27T01:32:36;14.33;;;6.87;;
5125;SDS011;63008;53.112;8.896;2023-02-27T01:34:36;11.80;;;6.80;;
5125;SDS011;63008;53.112;8.896;2023-02-27T01:36:37;8.77;;;6.53;;
5125;SDS011;63008;53.112;8.896;2023-02-27T01:38:47;7.73;;;6.07;;
5125;SDS011;63008;53.112;8.896;2023-02-27T01:40:48;6.90;;;6.20;;
5125;SDS011;63008;53.112;8.896;2023-02-27T01:42:49;6.67;;;6.00;;
5125;SDS011;63008;53.112;8.896;2023-02-27T01:47:27;11.23;;;6.30;;
5125;SDS011;63008;53.112;8.896;2023-02-27T01:49:30;16.83;;;7.03;;
5125;SDS011;63008;53.112;8.896;2023-02-27T01:51:35;8.60;;;6.67;;
5125;SDS011;63008;53.112;8.896;2023-02-27T01:53:40;8.00;;;6.80;;
5125;SDS011;63008;53.112;8.896;2023-02-27T01:55:44;6.10;;;5.50;;
5125;SDS011;63008;53.112;8.896;2023-02-27T01:57:47;16.10;;;6.63;;
5125;SDS011;63008;53.112;8.896;2023-02-27T01:59:50;13.93;;;7.40;;
5125;SDS011;63008;53.112;8.896;2023-02-27T02:01:51;7.10;;;6.40;;
5125;SDS011;63008;53.112;8.896;2023-02-27T02:06:12;8.47;;;7.30;;
5125;SDS011;63008;53.112;8.896;2023-02-27T02:08:14;8.20;;;6.80;;
5125;SDS011;63008;53.112;8.896;2023-02-27T02:10:18;8.20;;;6.97;;
5125;SDS011;63008;53.112;8.896;2023-02-27T02:12:21;8.00;;;6.40;;
5125;SDS011;63008;53.112;8.896;2023-02-27T02:14:26;9.03;;;5.93;;
5125;SDS011;63008;53.112;8.896;2023-02-27T02:18:48;11.67;;;6.47;;
5125;SDS011;63008;53.112;8.896;2023-02-27T02:21:13;10.20;;;6.60;;
5125;SDS011;63008;53.112;8.896;2023-02-27T02:31:48;7.67;;;6.87;;
5125;SDS011;63008;53.112;8.896;2023-02-27T02:39:00;7.73;;;6.50;;
5125;SDS011;63008;53.112;8.896;2023-02-27T02:41:07;8.97;;;7.47;;
5125;SDS011;63008;53.112;8.896;2023-02-27T02:43:28;8.90;;;6.53;;
5125;SDS011;63008;53.112;8.896;2023-02-27T02:45:45;9.10;;;6.57;;
5125;SDS011;63008;53.112;8.896;2023-02-27T02:48:36;8.43;;;7.23;;
5125;SDS011;63008;53.112;8.896;2023-02-27T02:50:35;8.00;;;7.03;;
5125;SDS011;63008;53.112;8.896;2023-02-27T02:55:15;13.40;;;7.60;;
5125;SDS011;63008;53.112;8.896;2023-02-27T02:57:26;7.20;;;6.03;;
5125;SDS011;63008;53.112;8.896;2023-02-27T02:59:42;7.53;;;6.20;;
5125;SDS011;63008;53.112;8.896;2023-02-27T03:01:58;13.73;;;7.37;;
5125;SDS011;63008;53.112;8.896;2023-02-27T03:06:31;11.07;;;7.10;;
5125;SDS011;63008;53.112;8.896;2023-02-27T03:08:38;9.03;;;7.07;;
5125;SDS011;63008;53.112;8.896;2023-02-27T03:10:53;8.50;;;6.63;;
5125;SDS011;63008;53.112;8.896;2023-02-27T03:13:01;8.80;;;6.87;;
5125;SDS011;63008;53.112;8.896;2023-02-27T03:15:18;8.33;;;6.70;;
5125;SDS011;63008;53.112;8.896;2023-02-27T03:18:08;11.03;;;6.40;;
5125;SDS011;63008;53.112;8.896;2023-02-27T03:19:58;8.70;;;6.07;;
5125;SDS011;63008;53.112;8.896;2023-02-27T03:22:05;12.37;;;7.40;;
5125;SDS011;63008;53.112;8.896;2023-02-27T03:24:11;7.73;;;6.40;;
5125;SDS011;63008;53.112;8.896;2023-02-27T03:26:19;7.50;;;6.40;;
5125;SDS011;63008;53.112;8.896;2023-02-27T03:28:25;10.37;;;6.90;;
5125;SDS011;63008;53.112;8.896;2023-02-27T03:30:31;7.37;;;6.57;;
5125;SDS011;63008;53.112;8.896;2023-02-27T03:32:53;9.37;;;6.10;;
5125;SDS011;63008;53.112;8.896;2023-02-27T03:34:59;7.60;;;6.37;;
5125;SDS011;63008;53.112;8.896;2023-02-27T03:37:08;9.60;;;6.20;;
5125;SDS011;63008;53.112;8.896;2023-02-27T03:39:36;10.70;;;6.20;;
5125;SDS011;63008;53.112;8.896;2023-02-27T03:44:00;9.77;;;5.97;;
5125;SDS011;63008;53.112;8.896;2023-02-27T03:46:08;6.90;;;6.03;;
5125;SDS011;63008;53.112;8.896;2023-02-27T03:48:18;14.10;;;8.03;;
5125;SDS011;63008;53.112;8.896;2023-02-27T03:50:20;8.70;;;7.17;;
5125;SDS011;63008;53.112;8.896;2023-02-27T03:52:21;11.13;;;6.30;;
5125;SDS011;63008;53.112;8.896;2023-02-27T03:54:29;9.93;;;6.80;;
5125;SDS011;63008;53.112;8.896;2023-02-27T03:56:39;10.17;;;6.53;;
5125;SDS011;63008;53.112;8.896;2023-02-27T03:58:45;10.67;;;6.87;;
5125;SDS011;63008;53.112;8.896;2023-02-27T04:00:46;6.80;;;5.83;;
5125;SDS011;63008;53.112;8.896;2023-02-27T04:02:49;8.03;;;5.70;;
5125;SDS011;63008;53.112;8.896;2023-02-27T04:04:52;7.97;;;6.10;;
5125;SDS011;63008;53.112;8.896;2023-02-27T04:14:23;14.80;;;6.50;;
5125;SDS011;63008;53.112;8.896;2023-02-27T04:16:39;7.23;;;5.33;;
5125;SDS011;63008;53.112;8.896;2023-02-27T04:19:04;6.70;;;6.00;;
5125;SDS011;63008;53.112;8.896;2023-02-27T04:22:09;10.47;;;5.90;;
5125;SDS011;63008;53.112;8.896;2023-02-27T04:24:31;7.23;;;5.80;;
5125;SDS011;63008;53.112;8.896;2023-02-27T04:26:45;8.97;;;5.43;;
5125;SDS011;63008;53.112;8.896;2023-02-27T04:29:06;8.10;;;5.77;;
5125;SDS011;63008;53.112;8.896;2023-02-27T04:31:21;7.77;;;5.73;;
5125;SDS011;63008;53.112;8.896;2023-02-27T04:36:05;7.57;;;5.53;;
5125;SDS011;63008;53.112;8.896;2023-02-27T04:38:15;8.40;;;5.60;;
5125;SDS011;63008;53.112;8.896;2023-02-27T04:40:37;6.57;;;5.33;;
5125;SDS011;63008;53.112;8.896;2023-02-27T04:42:44;5.80;;;5.00;;
5125;SDS011;63008;53.112;8.896;2023-02-27T04:44:49;7.97;;;4.90;;
5125;SDS011;63008;53.112;8.896;2023-02-27T04:46:55;8.07;;;5.60;;
5125;SDS011;63008;53.112;8.896;2023-02-27T04:48:59;7.03;;;5.03;;
5125;SDS011;63008;53.112;8.896;2023-02-27T04:51:11;6.50;;;5.10;;
5125;SDS011;63008;53.112;8.896;2023-02-27T04:55:24;7.17;;;5.63;;
5125;SDS011;63008;53.112;8.896;2023-02-27T04:57:31;7.90;;;4.50;;
5125;SDS011;63008;53.112;8.896;2023-02-27T04:59:44;12.07;;;5.37;;
5125;SDS011;63008;53.112;8.896;2023-02-27T05:02:13;10.07;;;5.77;;
5125;SDS011;63008;53.112;8.896;2023-02-27T05:04:16;6.97;;;5.33;;
5125;SDS011;63008;53.112;8.896;2023-02-27T05:06:20;6.23;;;4.83;;
5125;SDS011;63008;53.112;8.896;2023-02-27T05:08:29;6.90;;;5.10;;
5125;SDS011;63008;53.112;8.896;2023-02-27T05:10:39;7.00;;;5.37;;
5125;SDS011;63008;53.112;8.896;2023-02-27T05:12:48;5.20;;;4.70;;
5125;SDS011;63008;53.112;8.896;2023-02-27T05:17:03;15.53;;;5.30;;
5125;SDS011;63008;53.112;8.896;2023-02-27T05:19:07;7.30;;;5.53;;
5125;SDS011;63008;53.112;8.896;2023-02-27T05:23:34;10.13;;;5.93;;
5125;SDS011;63008;53.112;8.896;2023-02-27T05:25:40;10.73;;;6.23;;
5125;SDS011;63008;53.112;8.896;2023-02-27T05:27:50;7.27;;;4.83;;
5125;SDS011;63008;53.112;8.896;2023-02-27T05:34:42;6.77;;;5.37;;
5125;SDS011;63008;53.112;8.896;2023-02-27T05:36:51;7.17;;;5.30;;
5125;SDS011;63008;53.112;8.896;2023-02-27T05:38:58;8.53;;;5.40;;
5125;SDS011;63008;53.112;8.896;2023-02-27T05:41:05;8.17;;;6.30;;
5125;SDS011;63008;53.112;8.896;2023-02-27T05:43:11;10.10;;;6.03;;
5125;SDS011;63008;53.112;8.896;2023-02-27T05:45:19;11.77;;;6.33;;
5125;SDS011;63008;53.112;8.896;2023-02-27T05:47:25;14.17;;;5.97;;
5125;SDS011;63008;53.112;8.896;2023-02-27T05:49:31;13.80;;;6.70;;
5125;SDS011;63008;53.112;8.896;2023-02-27T05:51:39;9.63;;;6.10;;
5125;SDS011;63008;53.112;8.896;2023-02-27T05:53:46;10.20;;;6.17;;
5125;SDS011;63008;53.112;8.896;2023-02-27T05:55:52;8.33;;;5.87;;
5125;SDS011;63008;53.112;8.896;2023-02-27T05:57:56;11.10;;;5.40;;
5125;SDS011;63008;53.112;8.896;2023-02-27T06:02:15;8.80;;;5.57;;
5125;SDS011;63008;53.112;8.896;2023-02-27T06:04:16;6.60;;;6.00;;
5125;SDS011;63008;53.112;8.896;2023-02-27T06:06:18;10.23;;;6.50;;
5125;SDS011;63008;53.112;8.896;2023-02-27T06:08:20;14.33;;;6.83;;
5125;SDS011;63008;53.112;8.896;2023-02-27T06:10:23;9.50;;;6.73;;
5125;SDS011;63008;53.112;8.896;2023-02-27T06:12:24;11.83;;;6.50;;
5125;SDS011;63008;53.112;8.896;2023-02-27T06:14:25;11.90;;;6.80;;
5125;SDS011;63008;53.112;8.896;2023-02-27T06:16:26;17.23;;;7.77;;
5125;SDS011;63008;53.112;8.896;2023-02-27T06:18:27;12.27;;;7.33;;
5125;SDS011;63008;53.112;8.896;2023-02-27T06:20:28;11.23;;;7.23;;
5125;SDS011;63008;53.112;8.896;2023-02-27T06:22:29;11.53;;;7.53;;
5125;SDS011;63008;53.112;8.896;2023-02-27T06:24:30;10.60;;;7.13;;
5125;SDS011;63008;53.112;8.896;2023-02-27T06:26:31;10.70;;;7.13;;
5125;SDS011;63008;53.112;8.896;2023-02-27T06:28:31;10.60;;;8.60;;
5125;SDS011;63008;53.112;8.896;2023-02-27T06:30:32;13.13;;;9.13;;
5125;SDS011;63008;53.112;8.896;2023-02-27T06:32:33;7.80;;;7.00;;
5125;SDS011;63008;53.112;8.896;2023-02-27T06:34:34;11.73;;;8.10;;
5125;SDS011;63008;53.112;8.896;2023-02-27T06:36:35;8.13;;;7.30;;
5125;SDS011;63008;53.112;8.896;2023-02-27T06:38:36;10.33;;;7.90;;
5125;SDS011;63008;53.112;8.896;2023-02-27T06:40:37;11.27;;;8.00;;
5125;SDS011;63008;53.112;8.896;2023-02-27T06:42:39;11.97;;;7.73;;
5125;SDS011;63008;53.112;8.896;2023-02-27T06:44:41;9.30;;;7.10;;
5125;SDS011;63008;53.112;8.896;2023-02-27T06:46:42;13.07;;;8.23;;
5125;SDS011;63008;53.112;8.896;2023-02-27T06:48:43;15.63;;;8.37;;
5125;SDS011;63008;53.112;8.896;2023-02-27T06:50:45;11.77;;;8.60;;
5125;SDS011;63008;53.112;8.896;2023-02-27T06:52:50;12.30;;;8.87;;
5125;SDS011;63008;53.112;8.896;2023-02-27T06:54:51;12.37;;;9.30;;
5125;SDS011;63008;53.112;8.896;2023-02-27T06:56:52;18.57;;;8.83;;
5125;SDS011;63008;53.112;8.896;2023-02-27T06:58:53;10.37;;;9.10;;
5125;SDS011;63008;53.112;8.896;2023-02-27T07:00:54;14.37;;;8.43;;
5125;SDS011;63008;53.112;8.896;2023-02-27T07:02:55;12.77;;;9.63;;
5125;SDS011;63008;53.112;8.896;2023-02-27T07:04:56;12.50;;;9.00;;
5125;SDS011;63008;53.112;8.896;2023-02-27T07:06:57;12.10;;;8.50;;
5125;SDS011;63008;53.112;8.896;2023-02-27T07:08:59;13.73;;;8.63;;
5125;SDS011;63008;53.112;8.896;2023-02-27T07:11:00;9.93;;;8.17;;
5125;SDS011;63008;53.112;8.896;2023-02-27T07:13:01;12.53;;;8.93;;
5125;SDS011;63008;53.112;8.896;2023-02-27T07:15:03;14.63;;;9.67;;
5125;SDS011;63008;53.112;8.896;2023-02-27T07:17:05;9.80;;;8.67;;
5125;SDS011;63008;53.112;8.896;2023-02-27T07:19:06;13.50;;;9.87;;
5125;SDS011;63008;53.112;8.896;2023-02-27T07:21:07;14.70;;;8.93;;
5125;SDS011;63008;53.112;8.896;2023-02-27T07:23:07;14.37;;;9.60;;
5125;SDS011;63008;53.112;8.896;2023-02-27T07:25:10;11.60;;;8.83;;
5125;SDS011;63008;53.112;8.896;2023-02-27T07:27:11;16.10;;;9.50;;
5125;SDS011;63008;53.112;8.896;2023-02-27T07:29:15;21.60;;;9.60;;
5125;SDS011;63008;53.112;8.896;2023-02-27T07:31:16;14.17;;;9.50;;
5125;SDS011;63008;53.112;8.896;2023-02-27T07:33:20;13.07;;;9.00;;
5125;SDS011;63008;53.112;8.896;2023-02-27T07:35:21;18.50;;;10.30;;
5125;SDS011;63008;53.112;8.896;2023-02-27T07:37:22;16.07;;;9.33;;
5125;SDS011;63008;53.112;8.896;2023-02-27T07:39:23;18.30;;;10.67;;
5125;SDS011;63008;53.112;8.896;2023-02-27T07:41:24;13.77;;;9.37;;
5125;SDS011;63008;53.112;8.896;2023-02-27T07:43:25;16.40;;;9.00;;
5125;SDS011;63008;53.112;8.896;2023-02-27T07:45:26;12.47;;;8.70;;
5125;SDS011;63008;53.112;8.896;2023-02-27T07:47:27;12.67;;;9.33;;
5125;SDS011;63008;53.112;8.896;2023-02-27T07:49:29;11.70;;;8.70;;
5125;SDS011;63008;53.112;8.896;2023-02-27T07:51:30;13.80;;;9.27;;
5125;SDS011;63008;53.112;8.896;2023-02-27T07:53:31;12.27;;;9.57;;
5125;SDS011;63008;53.112;8.896;2023-02-27T07:55:33;14.57;;;8.90;;
5125;SDS011;63008;53.112;8.896;2023-02-27T07:57:33;27.03;;;8.80;;
5125;SDS011;63008;53.112;8.896;2023-02-27T07:59:34;10.87;;;8.23;;
5125;SDS011;63008;53.112;8.896;2023-02-27T08:01:35;9.80;;;8.80;;
5125;SDS011;63008;53.112;8.896;2023-02-27T08:03:36;10.30;;;8.50;;
5125;SDS011;63008;53.112;8.896;2023-02-27T08:05:37;13.00;;;8.20;;
5125;SDS011;63008;53.112;8.896;2023-02-27T08:07:38;12.63;;;8.87;;
5125;SDS011;63008;53.112;8.896;2023-02-27T08:09:39;11.63;;;7.90;;
5125;SDS011;63008;53.112;8.896;2023-02-27T08:11:40;12.90;;;8.00;;
5125;SDS011;63008;53.112;8.896;2023-02-27T08:13:41;10.23;;;7.47;;
5125;SDS011;63008;53.112;8.896;2023-02-27T08:15:42;12.60;;;7.27;;
5125;SDS011;63008;53.112;8.896;2023-02-27T08:17:45;13.93;;;7.10;;
5125;SDS011;63008;53.112;8.896;2023-02-27T08:19:47;11.50;;;8.07;;
5125;SDS011;63008;53.112;8.896;2023-02-27T08:21:47;12.37;;;7.47;;
5125;SDS011;63008;53.112;8.896;2023-02-27T08:23:49;10.90;;;7.50;;
5125;SDS011;63008;53.112;8.896;2023-02-27T08:25:50;9.40;;;6.90;;
5125;SDS011;63008;53.112;8.896;2023-02-27T08:27:51;10.40;;;6.63;;
5125;SDS011;63008;53.112;8.896;2023-02-27T08:29:52;11.80;;;6.37;;
5125;SDS011;63008;53.112;8.896;2023-02-27T08:31:53;8.60;;;7.10;;
5125;SDS011;63008;53.112;8.896;2023-02-27T08:33:54;8.73;;;5.60;;
5125;SDS011;63008;53.112;8.896;2023-02-27T08:35:55;11.60;;;5.67;;
5125;SDS011;63008;53.112;8.896;2023-02-27T08:37:56;11.20;;;6.10;;
5125;SDS011;63008;53.112;8.896;2023-02-27T08:39:57;8.03;;;5.23;;
5125;SDS011;63008;53.112;8.896;2023-02-27T08:41:58;19.17;;;5.00;;
5125;SDS011;63008;53.112;8.896;2023-02-27T08:43:59;8.00;;;5.17;;
5125;SDS011;63008;53.112;8.896;2023-02-27T08:46:01;6.43;;;5.83;;
5125;SDS011;63008;53.112;8.896;2023-02-27T08:48:02;8.63;;;5.00;;
5125;SDS011;63008;53.112;8.896;2023-02-27T08:50:03;6.10;;;5.50;;
5125;SDS011;63008;53.112;8.896;2023-02-27T08:52:05;15.63;;;5.77;;
5125;SDS011;63008;53.112;8.896;2023-02-27T08:54:08;11.10;;;5.10;;
5125;SDS011;63008;53.112;8.896;2023-02-27T08:56:09;14.57;;;5.13;;
5125;SDS011;63008;53.112;8.896;2023-02-27T08:58:10;9.27;;;4.27;;
5125;SDS011;63008;53.112;8.896;2023-02-27T09:00:12;8.03;;;5.10;;
5125;SDS011;63008;53.112;8.896;2023-02-27T09:02:14;6.40;;;4.63;;
5125;SDS011;63008;53.112;8.896;2023-02-27T09:04:15;10.10;;;4.40;;
5125;SDS011;63008;53.112;8.896;2023-02-27T09:06:16;7.13;;;4.10;;
5125;SDS011;63008;53.112;8.896;2023-02-27T09:08:17;7.23;;;4.17;;
5125;SDS011;63008;53.112;8.896;2023-02-27T09:10:18;4.73;;;4.17;;
5125;SDS011;63008;53.112;8.896;2023-02-27T09:12:19;8.40;;;4.10;;
5125;SDS011;63008;53.112;8.896;2023-02-27T09:14:20;6.73;;;3.33;;
5125;SDS011;63008;53.112;8.896;2023-02-27T09:16:21;7.07;;;3.83;;
5125;SDS011;63008;53.112;8.896;2023-02-27T09:18:22;4.77;;;2.97;;
5125;SDS011;63008;53.112;8.896;2023-02-27T09:20:24;8.40;;;4.83;;
5125;SDS011;63008;53.112;8.896;2023-02-27T09:22:25;8.23;;;3.63;;
5125;SDS011;63008;53.112;8.896;2023-02-27T09:24:26;5.13;;;2.93;;
5125;SDS011;63008;53.112;8.896;2023-02-27T09:26:27;6.10;;;3.53;;
5125;SDS011;63008;53.112;8.896;2023-02-27T09:28:28;5.57;;;3.60;;
5125;SDS011;63008;53.112;8.896;2023-02-27T09:30:29;5.40;;;3.23;;
5125;SDS011;63008;53.112;8.896;2023-02-27T09:32:30;8.13;;;3.80;;
5125;SDS011;63008;53.112;8.896;2023-02-27T09:34:31;11.20;;;3.50;;
5125;SDS011;63008;53.112;8.896;2023-02-27T09:36:32;8.33;;;3.80;;
5125;SDS011;63008;53.112;8.896;2023-02-27T09:38:33;9.23;;;4.10;;
5125;SDS011;63008;53.112;8.896;2023-02-27T09:40:38;7.77;;;4.43;;
5125;SDS011;63008;53.112;8.896;2023-02-27T09:42:41;6.73;;;3.73;;
5125;SDS011;63008;53.112;8.896;2023-02-27T09:44:46;5.60;;;3.33;;
5125;SDS011;63008;53.112;8.896;2023-02-27T09:46:50;5.07;;;3.27;;
5125;SDS011;63008;53.112;8.896;2023-02-27T09:48:52;7.93;;;3.20;;
5125;SDS011;63008;53.112;8.896;2023-02-27T09:50:56;4.17;;;2.93;;
5125;SDS011;63008;53.112;8.896;2023-02-27T09:52:58;5.83;;;2.63;;
5125;SDS011;63008;53.112;8.896;2023-02-27T09:54:59;7.30;;;3.20;;
5125;SDS011;63008;53.112;8.896;2023-02-27T09:57:02;5.53;;;3.13;;
5125;SDS011;63008;53.112;8.896;2023-02-27T09:59:13;7.27;;;3.10;;
5125;SDS011;63008;53.112;8.896;2023-02-27T10:01:27;6.73;;;3.30;;
5125;SDS011;63008;53.112;8.896;2023-02-27T10:03:37;6.30;;;2.60;;
5125;SDS011;63008;53.112;8.896;2023-02-27T10:08:34;5.20;;;2.23;;
5125;SDS011;63008;53.112;8.896;2023-02-27T10:10:50;4.47;;;2.27;;
5125;SDS011;63008;53.112;8.896;2023-02-27T10:15:45;6.30;;;2.63;;
5125;SDS011;63008;53.112;8.896;2023-02-27T10:17:49;3.67;;;2.23;;
5125;SDS011;63008;53.112;8.896;2023-02-27T10:19:59;6.20;;;2.70;;
5125;SDS011;63008;53.112;8.896;2023-02-27T10:22:05;5.97;;;2.83;;
5125;SDS011;63008;53.112;8.896;2023-02-27T10:24:23;4.30;;;2.70;;
5125;SDS011;63008;53.112;8.896;2023-02-27T10:26:29;2.27;;;2.17;;
5125;SDS011;63008;53.112;8.896;2023-02-27T10:28:32;6.10;;;2.40;;
5125;SDS011;63008;53.112;8.896;2023-02-27T10:30:33;5.60;;;2.90;;
5125;SDS011;63008;53.112;8.896;2023-02-27T10:32:34;3.53;;;2.20;;
5125;SDS011;63008;53.112;8.896;2023-02-27T10:34:39;5.37;;;2.00;;
5125;SDS011;63008;53.112;8.896;2023-02-27T10:36:46;5.87;;;2.27;;
5125;SDS011;63008;53.112;8.896;2023-02-27T10:38:51;2.27;;;1.90;;
5125;SDS011;63008;53.112;8.896;2023-02-27T10:40:56;8.83;;;2.20;;
5125;SDS011;63008;53.112;8.896;2023-02-27T10:43:00;4.80;;;2.17;;
5125;SDS011;63008;53.112;8.896;2023-02-27T10:45:03;6.07;;;2.70;;
5125;SDS011;63008;53.112;8.896;2023-02-27T10:47:04;4.07;;;1.90;;
5125;SDS011;63008;53.112;8.896;2023-02-27T10:49:19;4.83;;;2.13;;
5125;SDS011;63008;53.112;8.896;2023-02-27T10:51:23;5.47;;;1.90;;
5125;SDS011;63008;53.112;8.896;2023-02-27T10:53:25;7.03;;;2.33;;
5125;SDS011;63008;53.112;8.896;2023-02-27T10:55:31;1.90;;;1.73;;
5125;SDS011;63008;53.112;8.896;2023-02-27T10:57:39;6.40;;;2.20;;
5125;SDS011;63008;53.112;8.896;2023-02-27T10:59:42;4.97;;;1.97;;
5125;SDS011;63008;53.112;8.896;2023-02-27T11:01:55;3.23;;;1.53;;
5125;SDS011;63008;53.112;8.896;2023-02-27T11:03:58;3.37;;;1.50;;
5125;SDS011;63008;53.112;8.896;2023-02-27T11:06:00;3.23;;;1.80;;
5125;SDS011;63008;53.112;8.896;2023-02-27T11:08:09;4.40;;;1.50;;
5125;SDS011;63008;53.112;8.896;2023-02-27T11:12:25;4.77;;;1.70;;
5125;SDS011;63008;53.112;8.896;2023-02-27T11:14:30;2.90;;;1.83;;
5125;SDS011;63008;53.112;8.896;2023-02-27T11:16:41;7.33;;;1.63;;
5125;SDS011;63008;53.112;8.896;2023-02-27T11:18:51;2.77;;;2.37;;
5125;SDS011;63008;53.112;8.896;2023-02-27T11:21:08;8.03;;;2.40;;
5125;SDS011;63008;53.112;8.896;2023-02-27T11:23:23;2.80;;;1.83;;
5125;SDS011;63008;53.112;8.896;2023-02-27T11:25:24;3.23;;;1.47;;
5125;SDS011;63008;53.112;8.896;2023-02-27T11:27:27;7.00;;;2.30;;
5125;SDS011;63008;53.112;8.896;2023-02-27T11:29:30;3.30;;;1.90;;
5125;SDS011;63008;53.112;8.896;2023-02-27T11:31:33;2.37;;;2.17;;
5125;SDS011;63008;53.112;8.896;2023-02-27T11:33:39;6.13;;;2.00;;
5125;SDS011;63008;53.112;8.896;2023-02-27T11:35:50;2.93;;;2.10;;
5125;SDS011;63008;53.112;8.896;2023-02-27T11:37:54;6.23;;;2.13;;
5125;SDS011;63008;53.112;8.896;2023-02-27T11:42:13;5.70;;;1.83;;
5125;SDS011;63008;53.112;8.896;2023-02-27T11:44:17;2.80;;;2.10;;
5125;SDS011;63008;53.112;8.896;2023-02-27T11:46:21;3.37;;;2.10;;
5125;SDS011;63008;53.112;8.896;2023-02-27T11:48:25;3.13;;;1.83;;
5125;SDS011;63008;53.112;8.896;2023-02-27T11:55:03;2.93;;;1.90;;
5125;SDS011;63008;53.112;8.896;2023-02-27T11:57:17;3.27;;;1.83;;
5125;SDS011;63008;53.112;8.896;2023-02-27T11:59:41;9.30;;;2.17;;
5125;SDS011;63008;53.112;8.896;2023-02-27T12:01:49;3.10;;;1.63;;
5125;SDS011;63008;53.112;8.896;2023-02-27T12:03:56;2.90;;;1.60;;
5125;SDS011;63008;53.112;8.896;2023-02-27T12:06:02;5.87;;;3.17;;
5125;SDS011;63008;53.112;8.896;2023-02-27T12:08:22;2.03;;;1.50;;
5125;SDS011;63008;53.112;8.896;2023-02-27T12:11:21;3.03;;;2.00;;
5125;SDS011;63008;53.112;8.896;2023-02-27T12:13:05;1.60;;;1.47;;
5125;SDS011;63008;53.112;8.896;2023-02-27T12:15:23;3.60;;;1.60;;
5125;SDS011;63008;53.112;8.896;2023-02-27T12:17:38;3.13;;;1.67;;
5125;SDS011;63008;53.112;8.896;2023-02-27T12:19:55;5.77;;;1.70;;
5125;SDS011;63008;53.112;8.896;2023-02-27T12:22:23;2.47;;;1.63;;
5125;SDS011;63008;53.112;8.896;2023-02-27T12:24:35;1.63;;;1.40;;
5125;SDS011;63008;53.112;8.896;2023-02-27T12:26:42;1.67;;;1.57;;
5125;SDS011;63008;53.112;8.896;2023-02-27T12:31:24;4.33;;;1.53;;
5125;SDS011;63008;53.112;8.896;2023-02-27T12:33:45;4.43;;;1.53;;
5125;SDS011;63008;53.112;8.896;2023-02-27T12:36:03;2.70;;;1.20;;
5125;SDS011;63008;53.112;8.896;2023-02-27T12:38:11;3.00;;;1.33;;
5125;SDS011;63008;53.112;8.896;2023-02-27T12:40:15;3.80;;;1.40;;
5125;SDS011;63008;53.112;8.896;2023-02-27T12:42:21;2.40;;;1.73;;
5125;SDS011;63008;53.112;8.896;2023-02-27T12:49:19;1.60;;;1.50;;
5125;SDS011;63008;53.112;8.896;2023-02-27T12:51:47;5.60;;;1.07;;
5125;SDS011;63008;53.112;8.896;2023-02-27T12:56:48;4.83;;;1.40;;
5125;SDS011;63008;53.112;8.896;2023-02-27T12:59:02;6.53;;;1.53;;
5125;SDS011;63008;53.112;8.896;2023-02-27T13:03:47;1.63;;;1.53;;
5125;SDS011;63008;53.112;8.896;2023-02-27T13:05:58;4.10;;;1.30;;
5125;SDS011;63008;53.112;8.896;2023-02-27T13:10:14;3.73;;;1.20;;
5125;SDS011;63008;53.112;8.896;2023-02-27T13:12:36;2.07;;;1.30;;
5125;SDS011;63008;53.112;8.896;2023-02-27T13:14:58;2.30;;;1.10;;
5125;SDS011;63008;53.112;8.896;2023-02-27T13:19:35;2.13;;;1.10;;
5125;SDS011;63008;53.112;8.896;2023-02-27T13:21:48;5.50;;;1.00;;
5125;SDS011;63008;53.112;8.896;2023-02-27T13:26:21;3.10;;;1.10;;
5125;SDS011;63008;53.112;8.896;2023-02-27T13:28:30;1.40;;;1.03;;
5125;SDS011;63008;53.112;8.896;2023-02-27T13:30:31;2.80;;;1.20;;
5125;SDS011;63008;53.112;8.896;2023-02-27T13:34:57;2.63;;;1.60;;
5125;SDS011;63008;53.112;8.896;2023-02-27T13:37:04;4.80;;;1.27;;
5125;SDS011;63008;53.112;8.896;2023-02-27T13:41:49;7.33;;;2.20;;
5125;SDS011;63008;53.112;8.896;2023-02-27T13:43:51;2.63;;;1.60;;
5125;SDS011;63008;53.112;8.896;2023-02-27T13:45:59;2.43;;;1.40;;
5125;SDS011;63008;53.112;8.896;2023-02-27T13:48:15;1.70;;;1.50;;
5125;SDS011;63008;53.112;8.896;2023-02-27T13:52:35;1.90;;;1.17;;
5125;SDS011;63008;53.112;8.896;2023-02-27T13:54:38;4.30;;;1.60;;
5125;SDS011;63008;53.112;8.896;2023-02-27T13:59:09;2.87;;;1.57;;
5125;SDS011;63008;53.112;8.896;2023-02-27T14:01:16;4.83;;;1.70;;
5125;SDS011;63008;53.112;8.896;2023-02-27T14:03:22;2.40;;;1.50;;
5125;SDS011;63008;53.112;8.896;2023-02-27T14:05:45;2.50;;;1.40;;
5125;SDS011;63008;53.112;8.896;2023-02-27T14:07:49;5.50;;;1.80;;
5125;SDS011;63008;53.112;8.896;2023-02-27T14:10:07;3.43;;;1.60;;
5125;SDS011;63008;53.112;8.896;2023-02-27T14:18:53;2.10;;;1.30;;
5125;SDS011;63008;53.112;8.896;2023-02-27T14:20:55;3.27;;;1.50;;
5125;SDS011;63008;53.112;8.896;2023-02-27T14:25:19;3.43;;;1.50;;
5125;SDS011;63008;53.112;8.896;2023-02-27T14:27:28;2.30;;;1.70;;
5125;SDS011;63008;53.112;8.896;2023-02-27T14:29:31;5.70;;;2.07;;